Hovedside
METAR-TAF:

METAR-TAF

Lufthavner :

Yap, Mikronesia

breddegrad: 09-29N, lengdegrad: 138-05E, høyde over havet: 28 m

Gjeldene værobservasjon

Denne rapporten ble laget for 44 minutter siden, klokken 16:50 UTC
Vind 3 kt fra skiftende retning
Temperatur 26°C
Luftfuktighet 89%
Trykk 1011 hPa
Sikt: 19.3 km
Få skyer i en høyde av 1600 ft, Tårnskyer (cumulus).
Spredte skyer i en høyde av 30000 ft

METAR: PTYA 181650Z VRB03KT 12SM FEW016TCU SCT300 26/24 A2985 RMK TCU E SLP108 T02560242

Tid: 03:34 (17:34 UTC)

Varsel

Denne rapporten ble laget for 6 timer og 6 minutter siden, klokken 11:28 UTC
Varsel gyldig fra 18. klokken 12 UTC til 19. klokken 12 UTC
Vind 8 kt fra Nordøst
Sikt: 10 km
Få skyer i en høyde av 1800 ft
Få skyer i en høyde av 5000 ft

TAF: PTYA 181128Z 1812/1912 05008KT P6SM FEW018 FEW050

Værobservasjoner og værvarsel for over 4000 flyplasser (METAR- og TAF-rapporter).

Tilgjengelige stasjoner er representert av de røde og gule prikkene på kartet.

Hold musepekeren over prikken for å se navnet på stasjonen.

Klikk så for å se værobservasjoner og -varsler.

For å forandre kartet kan du klikke på den grønne knappen med svart kryss for å zoome inn, på den grønne knappen med strek for å zoome ut, eller på de grønne pilene for å se tilstøtende kart.


METAR-TAF: